sensor_id;sensor_type;location;lat;lon;timestamp;P1;durP1;ratioP1;P2;durP2;ratioP2
13435;SDS011;6790;49.520;8.504;2022-10-19T00:00:48;25.17;;;10.23;;
13435;SDS011;6790;49.520;8.504;2022-10-19T00:03:13;33.27;;;11.00;;
13435;SDS011;6790;49.520;8.504;2022-10-19T00:05:40;34.57;;;10.57;;
13435;SDS011;6790;49.520;8.504;2022-10-19T00:08:05;36.53;;;10.07;;
13435;SDS011;6790;49.520;8.504;2022-10-19T00:10:31;36.47;;;10.17;;
13435;SDS011;6790;49.520;8.504;2022-10-19T00:12:57;27.90;;;8.83;;
13435;SDS011;6790;49.520;8.504;2022-10-19T00:15:23;27.47;;;9.17;;
13435;SDS011;6790;49.520;8.504;2022-10-19T00:17:48;36.53;;;8.53;;
13435;SDS011;6790;49.520;8.504;2022-10-19T00:20:14;22.57;;;8.57;;
13435;SDS011;6790;49.520;8.504;2022-10-19T00:22:40;28.80;;;9.73;;
13435;SDS011;6790;49.520;8.504;2022-10-19T00:25:06;27.73;;;8.80;;
13435;SDS011;6790;49.520;8.504;2022-10-19T00:27:32;26.93;;;8.67;;
13435;SDS011;6790;49.520;8.504;2022-10-19T00:29:58;28.63;;;8.30;;
13435;SDS011;6790;49.520;8.504;2022-10-19T00:32:24;29.00;;;7.90;;
13435;SDS011;6790;49.520;8.504;2022-10-19T00:34:49;35.87;;;8.47;;
13435;SDS011;6790;49.520;8.504;2022-10-19T00:37:15;32.53;;;7.87;;
13435;SDS011;6790;49.520;8.504;2022-10-19T00:39:40;29.87;;;8.00;;
13435;SDS011;6790;49.520;8.504;2022-10-19T00:42:09;28.27;;;7.97;;
13435;SDS011;6790;49.520;8.504;2022-10-19T00:47:04;24.63;;;6.87;;
13435;SDS011;6790;49.520;8.504;2022-10-19T00:49:32;23.07;;;7.30;;
13435;SDS011;6790;49.520;8.504;2022-10-19T00:52:10;18.37;;;7.13;;
13435;SDS011;6790;49.520;8.504;2022-10-19T00:54:40;17.33;;;6.37;;
13435;SDS011;6790;49.520;8.504;2022-10-19T00:57:07;27.53;;;6.07;;
13435;SDS011;6790;49.520;8.504;2022-10-19T00:59:33;17.90;;;6.50;;
13435;SDS011;6790;49.520;8.504;2022-10-19T01:02:00;18.57;;;6.13;;
13435;SDS011;6790;49.520;8.504;2022-10-19T01:04:29;30.77;;;7.60;;
13435;SDS011;6790;49.520;8.504;2022-10-19T01:06:59;21.60;;;6.97;;
13435;SDS011;6790;49.520;8.504;2022-10-19T01:09:27;17.83;;;6.87;;
13435;SDS011;6790;49.520;8.504;2022-10-19T01:17:19;23.30;;;6.80;;
13435;SDS011;6790;49.520;8.504;2022-10-19T01:20:03;23.87;;;6.37;;
13435;SDS011;6790;49.520;8.504;2022-10-19T01:29:18;17.00;;;5.50;;
13435;SDS011;6790;49.520;8.504;2022-10-19T01:32:20;16.93;;;5.90;;
13435;SDS011;6790;49.520;8.504;2022-10-19T01:35:00;9.40;;;5.07;;
13435;SDS011;6790;49.520;8.504;2022-10-19T01:37:40;20.03;;;6.10;;
13435;SDS011;6790;49.520;8.504;2022-10-19T01:40:54;24.93;;;5.87;;
13435;SDS011;6790;49.520;8.504;2022-10-19T01:43:36;27.63;;;6.77;;
13435;SDS011;6790;49.520;8.504;2022-10-19T01:46:28;21.73;;;6.13;;
13435;SDS011;6790;49.520;8.504;2022-10-19T01:49:06;20.50;;;5.67;;
13435;SDS011;6790;49.520;8.504;2022-10-19T01:51:42;26.27;;;6.43;;
13435;SDS011;6790;49.520;8.504;2022-10-19T01:54:22;21.43;;;6.60;;
13435;SDS011;6790;49.520;8.504;2022-10-19T01:56:50;15.87;;;5.73;;
13435;SDS011;6790;49.520;8.504;2022-10-19T01:59:18;22.93;;;6.40;;
13435;SDS011;6790;49.520;8.504;2022-10-19T02:01:46;21.00;;;6.23;;
13435;SDS011;6790;49.520;8.504;2022-10-19T02:04:16;24.20;;;6.43;;
13435;SDS011;6790;49.520;8.504;2022-10-19T02:06:44;22.77;;;6.03;;
13435;SDS011;6790;49.520;8.504;2022-10-19T02:09:10;21.90;;;6.40;;
13435;SDS011;6790;49.520;8.504;2022-10-19T02:11:42;19.93;;;6.07;;
13435;SDS011;6790;49.520;8.504;2022-10-19T02:14:11;18.13;;;5.53;;
13435;SDS011;6790;49.520;8.504;2022-10-19T02:16:40;22.60;;;6.73;;
13435;SDS011;6790;49.520;8.504;2022-10-19T02:19:19;13.47;;;5.53;;
13435;SDS011;6790;49.520;8.504;2022-10-19T02:21:46;21.90;;;6.53;;
13435;SDS011;6790;49.520;8.504;2022-10-19T02:24:12;21.57;;;6.20;;
13435;SDS011;6790;49.520;8.504;2022-10-19T02:26:37;27.20;;;6.20;;
13435;SDS011;6790;49.520;8.504;2022-10-19T02:29:04;17.40;;;6.23;;
13435;SDS011;6790;49.520;8.504;2022-10-19T02:31:31;18.97;;;5.50;;
13435;SDS011;6790;49.520;8.504;2022-10-19T02:33:57;29.27;;;6.87;;
13435;SDS011;6790;49.520;8.504;2022-10-19T02:36:23;14.73;;;6.50;;
13435;SDS011;6790;49.520;8.504;2022-10-19T02:38:49;18.73;;;6.87;;
13435;SDS011;6790;49.520;8.504;2022-10-19T02:41:35;17.43;;;6.20;;
13435;SDS011;6790;49.520;8.504;2022-10-19T02:44:18;18.23;;;6.10;;
13435;SDS011;6790;49.520;8.504;2022-10-19T02:47:12;21.77;;;6.63;;
13435;SDS011;6790;49.520;8.504;2022-10-19T02:49:43;8.83;;;4.97;;
13435;SDS011;6790;49.520;8.504;2022-10-19T02:52:10;15.30;;;6.27;;
13435;SDS011;6790;49.520;8.504;2022-10-19T02:54:38;14.00;;;6.87;;
13435;SDS011;6790;49.520;8.504;2022-10-19T02:59:43;19.77;;;6.27;;
13435;SDS011;6790;49.520;8.504;2022-10-19T03:02:09;21.47;;;6.20;;
13435;SDS011;6790;49.520;8.504;2022-10-19T03:04:35;27.77;;;7.77;;
13435;SDS011;6790;49.520;8.504;2022-10-19T03:07:01;16.07;;;6.33;;
13435;SDS011;6790;49.520;8.504;2022-10-19T03:09:27;26.27;;;7.23;;
13435;SDS011;6790;49.520;8.504;2022-10-19T03:11:54;30.37;;;6.90;;
13435;SDS011;6790;49.520;8.504;2022-10-19T03:14:20;24.93;;;7.27;;
13435;SDS011;6790;49.520;8.504;2022-10-19T03:16:46;22.73;;;7.17;;
13435;SDS011;6790;49.520;8.504;2022-10-19T03:19:11;25.40;;;7.10;;
13435;SDS011;6790;49.520;8.504;2022-10-19T03:21:37;19.43;;;6.60;;
13435;SDS011;6790;49.520;8.504;2022-10-19T03:24:03;19.53;;;7.27;;
13435;SDS011;6790;49.520;8.504;2022-10-19T03:26:29;17.80;;;7.27;;
13435;SDS011;6790;49.520;8.504;2022-10-19T03:28:55;26.70;;;7.53;;
13435;SDS011;6790;49.520;8.504;2022-10-19T03:31:21;17.37;;;7.13;;
13435;SDS011;6790;49.520;8.504;2022-10-19T03:33:46;27.10;;;7.10;;
13435;SDS011;6790;49.520;8.504;2022-10-19T03:38:50;30.40;;;6.60;;
13435;SDS011;6790;49.520;8.504;2022-10-19T03:41:24;22.57;;;6.73;;
13435;SDS011;6790;49.520;8.504;2022-10-19T03:43:52;31.93;;;7.83;;
13435;SDS011;6790;49.520;8.504;2022-10-19T03:46:18;20.83;;;6.37;;
13435;SDS011;6790;49.520;8.504;2022-10-19T03:48:45;24.87;;;8.33;;
13435;SDS011;6790;49.520;8.504;2022-10-19T03:51:15;27.30;;;8.50;;
13435;SDS011;6790;49.520;8.504;2022-10-19T03:53:46;21.77;;;7.87;;
13435;SDS011;6790;49.520;8.504;2022-10-19T03:56:17;18.93;;;6.67;;
13435;SDS011;6790;49.520;8.504;2022-10-19T03:58:46;19.33;;;7.60;;
13435;SDS011;6790;49.520;8.504;2022-10-19T04:01:17;22.77;;;7.60;;
13435;SDS011;6790;49.520;8.504;2022-10-19T04:03:59;20.83;;;7.90;;
13435;SDS011;6790;49.520;8.504;2022-10-19T04:06:28;20.17;;;7.17;;
13435;SDS011;6790;49.520;8.504;2022-10-19T04:08:58;20.97;;;8.20;;
13435;SDS011;6790;49.520;8.504;2022-10-19T04:11:25;17.57;;;7.43;;
13435;SDS011;6790;49.520;8.504;2022-10-19T04:13:54;26.73;;;7.60;;
13435;SDS011;6790;49.520;8.504;2022-10-19T04:16:22;15.93;;;7.23;;
13435;SDS011;6790;49.520;8.504;2022-10-19T04:18:49;19.00;;;7.50;;
13435;SDS011;6790;49.520;8.504;2022-10-19T04:21:25;21.00;;;7.00;;
13435;SDS011;6790;49.520;8.504;2022-10-19T04:24:12;21.03;;;6.93;;
13435;SDS011;6790;49.520;8.504;2022-10-19T04:26:42;27.83;;;7.87;;
13435;SDS011;6790;49.520;8.504;2022-10-19T04:29:10;31.60;;;8.90;;
13435;SDS011;6790;49.520;8.504;2022-10-19T04:31:38;30.90;;;8.47;;
13435;SDS011;6790;49.520;8.504;2022-10-19T04:34:04;36.53;;;7.93;;
13435;SDS011;6790;49.520;8.504;2022-10-19T04:36:31;19.03;;;7.20;;
13435;SDS011;6790;49.520;8.504;2022-10-19T04:38:57;30.50;;;8.73;;
13435;SDS011;6790;49.520;8.504;2022-10-19T04:41:23;53.57;;;23.57;;
13435;SDS011;6790;49.520;8.504;2022-10-19T04:43:53;36.90;;;17.73;;
13435;SDS011;6790;49.520;8.504;2022-10-19T04:46:22;54.63;;;28.77;;
13435;SDS011;6790;49.520;8.504;2022-10-19T04:48:48;40.27;;;15.60;;
13435;SDS011;6790;49.520;8.504;2022-10-19T04:51:14;35.27;;;9.17;;
13435;SDS011;6790;49.520;8.504;2022-10-19T04:53:40;28.87;;;7.80;;
13435;SDS011;6790;49.520;8.504;2022-10-19T04:56:09;39.07;;;7.77;;
13435;SDS011;6790;49.520;8.504;2022-10-19T04:58:39;36.17;;;8.77;;
13435;SDS011;6790;49.520;8.504;2022-10-19T05:03:38;48.70;;;8.57;;
13435;SDS011;6790;49.520;8.504;2022-10-19T05:06:07;79.43;;;10.33;;
13435;SDS011;6790;49.520;8.504;2022-10-19T05:08:34;46.70;;;8.70;;
13435;SDS011;6790;49.520;8.504;2022-10-19T05:11:02;42.80;;;8.43;;
13435;SDS011;6790;49.520;8.504;2022-10-19T05:13:30;44.57;;;7.90;;
13435;SDS011;6790;49.520;8.504;2022-10-19T05:16:01;58.00;;;8.53;;
13435;SDS011;6790;49.520;8.504;2022-10-19T05:18:29;28.27;;;7.20;;
13435;SDS011;6790;49.520;8.504;2022-10-19T05:21:05;34.77;;;7.40;;
13435;SDS011;6790;49.520;8.504;2022-10-19T05:23:34;25.87;;;6.90;;
13435;SDS011;6790;49.520;8.504;2022-10-19T05:26:04;28.23;;;7.27;;
13435;SDS011;6790;49.520;8.504;2022-10-19T05:28:33;41.23;;;10.97;;
13435;SDS011;6790;49.520;8.504;2022-10-19T05:31:13;63.13;;;11.97;;
13435;SDS011;6790;49.520;8.504;2022-10-19T05:33:41;41.50;;;11.10;;
13435;SDS011;6790;49.520;8.504;2022-10-19T05:38:45;44.77;;;8.53;;
13435;SDS011;6790;49.520;8.504;2022-10-19T05:41:13;23.03;;;6.53;;
13435;SDS011;6790;49.520;8.504;2022-10-19T05:43:40;33.77;;;8.30;;
13435;SDS011;6790;49.520;8.504;2022-10-19T05:46:11;26.03;;;6.77;;
13435;SDS011;6790;49.520;8.504;2022-10-19T05:48:41;29.63;;;6.20;;
13435;SDS011;6790;49.520;8.504;2022-10-19T05:51:07;29.33;;;7.07;;
13435;SDS011;6790;49.520;8.504;2022-10-19T05:53:36;26.03;;;7.27;;
13435;SDS011;6790;49.520;8.504;2022-10-19T05:56:03;16.37;;;6.50;;
13435;SDS011;6790;49.520;8.504;2022-10-19T05:58:31;28.07;;;6.33;;
13435;SDS011;6790;49.520;8.504;2022-10-19T06:00:57;22.57;;;5.67;;
13435;SDS011;6790;49.520;8.504;2022-10-19T06:03:24;30.60;;;6.13;;
13435;SDS011;6790;49.520;8.504;2022-10-19T06:05:51;19.30;;;5.47;;
13435;SDS011;6790;49.520;8.504;2022-10-19T06:08:18;14.57;;;5.87;;
13435;SDS011;6790;49.520;8.504;2022-10-19T06:10:45;21.67;;;6.53;;
13435;SDS011;6790;49.520;8.504;2022-10-19T06:13:12;25.13;;;6.00;;
13435;SDS011;6790;49.520;8.504;2022-10-19T06:15:40;21.93;;;6.43;;
13435;SDS011;6790;49.520;8.504;2022-10-19T06:18:06;27.67;;;7.10;;
13435;SDS011;6790;49.520;8.504;2022-10-19T06:20:36;19.43;;;6.47;;
13435;SDS011;6790;49.520;8.504;2022-10-19T06:23:04;34.00;;;7.17;;
13435;SDS011;6790;49.520;8.504;2022-10-19T06:25:31;16.07;;;6.20;;
13435;SDS011;6790;49.520;8.504;2022-10-19T06:27:58;15.20;;;5.80;;
13435;SDS011;6790;49.520;8.504;2022-10-19T06:30:25;18.13;;;6.93;;
13435;SDS011;6790;49.520;8.504;2022-10-19T06:32:51;20.93;;;6.83;;
13435;SDS011;6790;49.520;8.504;2022-10-19T06:35:17;24.40;;;7.33;;
13435;SDS011;6790;49.520;8.504;2022-10-19T06:37:42;22.40;;;6.00;;
13435;SDS011;6790;49.520;8.504;2022-10-19T06:40:08;25.73;;;5.83;;
13435;SDS011;6790;49.520;8.504;2022-10-19T06:42:35;16.57;;;6.10;;
13435;SDS011;6790;49.520;8.504;2022-10-19T06:45:07;22.53;;;7.30;;
13435;SDS011;6790;49.520;8.504;2022-10-19T06:47:34;19.43;;;6.33;;
13435;SDS011;6790;49.520;8.504;2022-10-19T06:50:01;16.80;;;6.80;;
13435;SDS011;6790;49.520;8.504;2022-10-19T06:52:29;25.47;;;7.67;;
13435;SDS011;6790;49.520;8.504;2022-10-19T06:54:56;21.20;;;7.93;;
13435;SDS011;6790;49.520;8.504;2022-10-19T06:57:21;23.03;;;6.67;;
13435;SDS011;6790;49.520;8.504;2022-10-19T06:59:47;14.87;;;5.80;;
13435;SDS011;6790;49.520;8.504;2022-10-19T07:02:13;20.10;;;7.10;;
13435;SDS011;6790;49.520;8.504;2022-10-19T07:04:38;17.57;;;6.83;;
13435;SDS011;6790;49.520;8.504;2022-10-19T07:07:04;17.33;;;7.00;;
13435;SDS011;6790;49.520;8.504;2022-10-19T07:09:30;21.70;;;6.53;;
13435;SDS011;6790;49.520;8.504;2022-10-19T07:11:56;17.13;;;6.87;;
13435;SDS011;6790;49.520;8.504;2022-10-19T07:14:21;17.90;;;7.20;;
13435;SDS011;6790;49.520;8.504;2022-10-19T07:16:52;18.13;;;8.17;;
13435;SDS011;6790;49.520;8.504;2022-10-19T07:19:19;21.93;;;7.90;;
13435;SDS011;6790;49.520;8.504;2022-10-19T07:21:49;17.93;;;7.90;;
13435;SDS011;6790;49.520;8.504;2022-10-19T07:24:15;17.50;;;7.63;;
13435;SDS011;6790;49.520;8.504;2022-10-19T07:26:41;17.50;;;7.57;;
13435;SDS011;6790;49.520;8.504;2022-10-19T07:29:07;15.27;;;7.43;;
13435;SDS011;6790;49.520;8.504;2022-10-19T07:31:33;24.10;;;7.93;;
13435;SDS011;6790;49.520;8.504;2022-10-19T07:33:59;15.27;;;6.73;;
13435;SDS011;6790;49.520;8.504;2022-10-19T07:36:28;49.67;;;29.67;;
13435;SDS011;6790;49.520;8.504;2022-10-19T07:38:56;43.60;;;25.27;;
13435;SDS011;6790;49.520;8.504;2022-10-19T07:41:23;21.27;;;10.10;;
13435;SDS011;6790;49.520;8.504;2022-10-19T07:43:50;20.40;;;8.30;;
13435;SDS011;6790;49.520;8.504;2022-10-19T07:46:20;22.23;;;8.30;;
13435;SDS011;6790;49.520;8.504;2022-10-19T07:48:49;13.60;;;6.87;;
13435;SDS011;6790;49.520;8.504;2022-10-19T07:51:15;25.27;;;8.60;;
13435;SDS011;6790;49.520;8.504;2022-10-19T07:53:42;20.70;;;8.73;;
13435;SDS011;6790;49.520;8.504;2022-10-19T07:56:10;20.13;;;8.20;;
13435;SDS011;6790;49.520;8.504;2022-10-19T07:58:38;25.33;;;9.17;;
13435;SDS011;6790;49.520;8.504;2022-10-19T08:03:36;23.43;;;9.63;;
13435;SDS011;6790;49.520;8.504;2022-10-19T08:06:03;19.27;;;9.60;;
13435;SDS011;6790;49.520;8.504;2022-10-19T08:08:32;23.43;;;8.97;;
13435;SDS011;6790;49.520;8.504;2022-10-19T08:11:08;24.83;;;10.47;;
13435;SDS011;6790;49.520;8.504;2022-10-19T08:13:39;24.23;;;10.10;;
13435;SDS011;6790;49.520;8.504;2022-10-19T08:16:05;21.67;;;10.13;;
13435;SDS011;6790;49.520;8.504;2022-10-19T08:18:45;20.53;;;9.03;;
13435;SDS011;6790;49.520;8.504;2022-10-19T08:21:10;24.70;;;9.17;;
13435;SDS011;6790;49.520;8.504;2022-10-19T08:23:36;16.17;;;7.90;;
13435;SDS011;6790;49.520;8.504;2022-10-19T08:26:02;21.40;;;8.83;;
13435;SDS011;6790;49.520;8.504;2022-10-19T08:28:27;15.00;;;8.17;;
13435;SDS011;6790;49.520;8.504;2022-10-19T08:30:53;16.40;;;8.97;;
13435;SDS011;6790;49.520;8.504;2022-10-19T08:33:22;14.60;;;8.27;;
13435;SDS011;6790;49.520;8.504;2022-10-19T08:35:49;17.27;;;9.00;;
13435;SDS011;6790;49.520;8.504;2022-10-19T08:38:15;19.37;;;8.63;;
13435;SDS011;6790;49.520;8.504;2022-10-19T08:40:41;18.77;;;9.40;;
13435;SDS011;6790;49.520;8.504;2022-10-19T08:45:46;22.33;;;9.73;;
13435;SDS011;6790;49.520;8.504;2022-10-19T08:51:00;19.10;;;10.13;;
13435;SDS011;6790;49.520;8.504;2022-10-19T08:56:35;17.67;;;9.00;;
13435;SDS011;6790;49.520;8.504;2022-10-19T09:01:58;18.33;;;9.90;;
13435;SDS011;6790;49.520;8.504;2022-10-19T09:04:39;18.23;;;10.40;;
13435;SDS011;6790;49.520;8.504;2022-10-19T09:07:18;21.47;;;10.07;;
13435;SDS011;6790;49.520;8.504;2022-10-19T09:09:50;24.97;;;10.77;;
13435;SDS011;6790;49.520;8.504;2022-10-19T09:18:04;19.93;;;10.47;;
13435;SDS011;6790;49.520;8.504;2022-10-19T09:20:40;20.20;;;10.33;;
13435;SDS011;6790;49.520;8.504;2022-10-19T09:23:18;24.60;;;12.07;;
13435;SDS011;6790;49.520;8.504;2022-10-19T09:25:56;18.20;;;10.97;;
13435;SDS011;6790;49.520;8.504;2022-10-19T09:31:01;16.20;;;10.20;;
13435;SDS011;6790;49.520;8.504;2022-10-19T09:33:33;20.43;;;10.63;;
13435;SDS011;6790;49.520;8.504;2022-10-19T09:36:02;16.87;;;10.03;;
13435;SDS011;6790;49.520;8.504;2022-10-19T09:38:30;13.80;;;9.40;;
13435;SDS011;6790;49.520;8.504;2022-10-19T09:40:57;14.10;;;9.47;;
13435;SDS011;6790;49.520;8.504;2022-10-19T09:43:32;13.40;;;9.43;;
13435;SDS011;6790;49.520;8.504;2022-10-19T09:48:57;13.97;;;9.43;;
13435;SDS011;6790;49.520;8.504;2022-10-19T09:51:25;13.80;;;8.97;;
13435;SDS011;6790;49.520;8.504;2022-10-19T09:54:03;13.97;;;9.17;;
13435;SDS011;6790;49.520;8.504;2022-10-19T09:56:30;13.10;;;9.73;;
13435;SDS011;6790;49.520;8.504;2022-10-19T09:59:03;11.53;;;8.37;;
13435;SDS011;6790;49.520;8.504;2022-10-19T10:01:44;12.53;;;8.13;;
13435;SDS011;6790;49.520;8.504;2022-10-19T10:04:14;10.33;;;7.97;;
13435;SDS011;6790;49.520;8.504;2022-10-19T10:06:42;10.07;;;7.70;;
13435;SDS011;6790;49.520;8.504;2022-10-19T10:09:18;14.47;;;8.03;;
13435;SDS011;6790;49.520;8.504;2022-10-19T10:11:52;11.87;;;7.17;;
13435;SDS011;6790;49.520;8.504;2022-10-19T10:14:26;10.63;;;7.13;;
13435;SDS011;6790;49.520;8.504;2022-10-19T10:17:03;9.93;;;7.67;;
13435;SDS011;6790;49.520;8.504;2022-10-19T10:20:15;7.73;;;6.53;;
13435;SDS011;6790;49.520;8.504;2022-10-19T10:22:51;10.60;;;7.40;;
13435;SDS011;6790;49.520;8.504;2022-10-19T10:25:33;18.90;;;14.07;;
13435;SDS011;6790;49.520;8.504;2022-10-19T10:28:22;7.33;;;6.20;;
13435;SDS011;6790;49.520;8.504;2022-10-19T10:30:51;9.37;;;6.40;;
13435;SDS011;6790;49.520;8.504;2022-10-19T10:33:44;10.23;;;6.83;;
13435;SDS011;6790;49.520;8.504;2022-10-19T10:36:27;7.77;;;6.60;;
13435;SDS011;6790;49.520;8.504;2022-10-19T10:39:04;11.10;;;7.13;;
13435;SDS011;6790;49.520;8.504;2022-10-19T10:41:38;7.93;;;6.67;;
13435;SDS011;6790;49.520;8.504;2022-10-19T10:44:14;9.00;;;6.13;;
13435;SDS011;6790;49.520;8.504;2022-10-19T10:46:51;7.40;;;5.73;;
13435;SDS011;6790;49.520;8.504;2022-10-19T10:49:22;9.83;;;6.50;;
13435;SDS011;6790;49.520;8.504;2022-10-19T10:51:59;7.90;;;6.03;;
13435;SDS011;6790;49.520;8.504;2022-10-19T10:54:30;8.47;;;6.23;;
13435;SDS011;6790;49.520;8.504;2022-10-19T10:57:10;8.53;;;5.90;;
13435;SDS011;6790;49.520;8.504;2022-10-19T11:02:44;7.27;;;5.77;;
13435;SDS011;6790;49.520;8.504;2022-10-19T11:05:48;7.10;;;5.20;;
13435;SDS011;6790;49.520;8.504;2022-10-19T11:11:03;5.50;;;4.50;;
13435;SDS011;6790;49.520;8.504;2022-10-19T11:14:00;5.70;;;4.77;;
13435;SDS011;6790;49.520;8.504;2022-10-19T11:17:03;6.20;;;4.60;;
13435;SDS011;6790;49.520;8.504;2022-10-19T11:19:41;5.15;;;4.43;;
13435;SDS011;6790;49.520;8.504;2022-10-19T11:22:27;6.47;;;4.20;;
13435;SDS011;6790;49.520;8.504;2022-10-19T11:28:45;5.32;;;4.28;;
13435;SDS011;6790;49.520;8.504;2022-10-19T11:36:55;4.43;;;3.63;;
13435;SDS011;6790;49.520;8.504;2022-10-19T11:39:39;4.82;;;3.97;;
13435;SDS011;6790;49.520;8.504;2022-10-19T11:42:41;4.90;;;4.15;;
13435;SDS011;6790;49.520;8.504;2022-10-19T11:48:14;6.35;;;3.55;;
13435;SDS011;6790;49.520;8.504;2022-10-19T11:51:18;5.85;;;3.35;;
13435;SDS011;6790;49.520;8.504;2022-10-19T11:54:24;3.72;;;3.30;;
13435;SDS011;6790;49.520;8.504;2022-10-19T11:57:15;6.35;;;3.28;;
13435;SDS011;6790;49.520;8.504;2022-10-19T12:02:46;3.00;;;2.63;;
13435;SDS011;6790;49.520;8.504;2022-10-19T12:08:39;6.23;;;3.53;;
13435;SDS011;6790;49.520;8.504;2022-10-19T12:11:39;4.80;;;2.63;;
13435;SDS011;6790;49.520;8.504;2022-10-19T12:14:34;3.53;;;2.83;;
13435;SDS011;6790;49.520;8.504;2022-10-19T12:17:06;6.40;;;2.90;;
13435;SDS011;6790;49.520;8.504;2022-10-19T12:19:43;3.00;;;2.63;;
13435;SDS011;6790;49.520;8.504;2022-10-19T12:22:14;2.73;;;2.47;;
13435;SDS011;6790;49.520;8.504;2022-10-19T12:24:45;2.78;;;2.50;;
13435;SDS011;6790;49.520;8.504;2022-10-19T12:27:12;3.53;;;2.75;;
13435;SDS011;6790;49.520;8.504;2022-10-19T12:29:42;6.47;;;4.78;;
13435;SDS011;6790;49.520;8.504;2022-10-19T12:32:12;3.10;;;2.67;;
13435;SDS011;6790;49.520;8.504;2022-10-19T12:34:49;4.63;;;2.93;;
13435;SDS011;6790;49.520;8.504;2022-10-19T12:40:31;3.40;;;2.43;;
13435;SDS011;6790;49.520;8.504;2022-10-19T12:48:40;3.20;;;2.90;;
13435;SDS011;6790;49.520;8.504;2022-10-19T12:51:06;3.40;;;2.73;;
13435;SDS011;6790;49.520;8.504;2022-10-19T12:56:11;4.00;;;2.60;;
13435;SDS011;6790;49.520;8.504;2022-10-19T12:58:56;4.63;;;2.88;;
13435;SDS011;6790;49.520;8.504;2022-10-19T13:01:39;2.63;;;2.40;;
13435;SDS011;6790;49.520;8.504;2022-10-19T13:04:12;2.50;;;2.27;;
13435;SDS011;6790;49.520;8.504;2022-10-19T13:06:44;3.60;;;2.70;;
13435;SDS011;6790;49.520;8.504;2022-10-19T13:25:22;2.50;;;2.30;;
13435;SDS011;6790;49.520;8.504;2022-10-19T13:41:13;4.73;;;2.10;;
13435;SDS011;6790;49.520;8.504;2022-10-19T14:07:13;8.77;;;2.80;;
13435;SDS011;6790;49.520;8.504;2022-10-19T14:09:48;3.20;;;2.10;;
13435;SDS011;6790;49.520;8.504;2022-10-19T14:12:30;2.30;;;2.10;;
13435;SDS011;6790;49.520;8.504;2022-10-19T14:15:10;3.00;;;2.27;;
13435;SDS011;6790;49.520;8.504;2022-10-19T14:17:53;4.13;;;2.30;;
13435;SDS011;6790;49.520;8.504;2022-10-19T14:23:19;2.80;;;2.30;;
13435;SDS011;6790;49.520;8.504;2022-10-19T14:25:57;3.13;;;2.37;;
13435;SDS011;6790;49.520;8.504;2022-10-19T14:28:29;5.67;;;2.33;;
13435;SDS011;6790;49.520;8.504;2022-10-19T14:30:58;3.00;;;2.40;;
13435;SDS011;6790;49.520;8.504;2022-10-19T14:33:30;3.07;;;2.47;;
13435;SDS011;6790;49.520;8.504;2022-10-19T14:35:59;7.43;;;2.80;;
13435;SDS011;6790;49.520;8.504;2022-10-19T14:38:28;7.43;;;4.20;;
13435;SDS011;6790;49.520;8.504;2022-10-19T14:41:01;5.43;;;3.37;;
13435;SDS011;6790;49.520;8.504;2022-10-19T14:43:32;3.80;;;3.20;;
13435;SDS011;6790;49.520;8.504;2022-10-19T14:48:30;3.43;;;2.80;;
13435;SDS011;6790;49.520;8.504;2022-10-19T14:50:57;3.00;;;2.70;;
13435;SDS011;6790;49.520;8.504;2022-10-19T14:56:01;2.80;;;2.17;;
13435;SDS011;6790;49.520;8.504;2022-10-19T14:58:39;2.67;;;2.40;;
13435;SDS011;6790;49.520;8.504;2022-10-19T15:01:16;4.13;;;2.70;;
13435;SDS011;6790;49.520;8.504;2022-10-19T15:03:43;10.13;;;6.63;;
13435;SDS011;6790;49.520;8.504;2022-10-19T15:06:20;6.03;;;4.27;;
13435;SDS011;6790;49.520;8.504;2022-10-19T15:08:53;9.10;;;3.50;;
13435;SDS011;6790;49.520;8.504;2022-10-19T15:14:04;8.97;;;6.03;;
13435;SDS011;6790;49.520;8.504;2022-10-19T15:16:40;11.83;;;3.23;;
13435;SDS011;6790;49.520;8.504;2022-10-19T15:19:14;6.40;;;3.37;;
13435;SDS011;6790;49.520;8.504;2022-10-19T15:21:45;5.47;;;2.97;;
13435;SDS011;6790;49.520;8.504;2022-10-19T15:24:25;4.70;;;3.47;;
13435;SDS011;6790;49.520;8.504;2022-10-19T15:26:52;4.13;;;3.47;;
13435;SDS011;6790;49.520;8.504;2022-10-19T15:29:20;4.73;;;3.60;;
13435;SDS011;6790;49.520;8.504;2022-10-19T15:31:52;5.17;;;3.17;;
13435;SDS011;6790;49.520;8.504;2022-10-19T15:34:24;5.93;;;3.73;;
13435;SDS011;6790;49.520;8.504;2022-10-19T15:36:58;4.10;;;3.70;;
13435;SDS011;6790;49.520;8.504;2022-10-19T15:39:34;4.87;;;3.70;;
13435;SDS011;6790;49.520;8.504;2022-10-19T15:44:59;6.53;;;3.93;;
13435;SDS011;6790;49.520;8.504;2022-10-19T15:47:25;5.83;;;4.23;;
13435;SDS011;6790;49.520;8.504;2022-10-19T15:52:27;6.53;;;4.70;;
13435;SDS011;6790;49.520;8.504;2022-10-19T15:54:58;7.60;;;5.37;;
13435;SDS011;6790;49.520;8.504;2022-10-19T16:00:00;6.67;;;4.50;;
13435;SDS011;6790;49.520;8.504;2022-10-19T16:02:36;7.00;;;4.97;;
13435;SDS011;6790;49.520;8.504;2022-10-19T16:05:03;6.37;;;4.37;;
13435;SDS011;6790;49.520;8.504;2022-10-19T16:07:30;8.17;;;4.20;;
13435;SDS011;6790;49.520;8.504;2022-10-19T16:09:58;6.93;;;3.70;;
13435;SDS011;6790;49.520;8.504;2022-10-19T16:12:24;7.70;;;3.60;;
13435;SDS011;6790;49.520;8.504;2022-10-19T16:14:50;5.87;;;4.07;;
13435;SDS011;6790;49.520;8.504;2022-10-19T16:17:17;6.13;;;3.90;;
13435;SDS011;6790;49.520;8.504;2022-10-19T16:19:43;7.73;;;3.70;;
13435;SDS011;6790;49.520;8.504;2022-10-19T16:22:09;9.47;;;4.13;;
13435;SDS011;6790;49.520;8.504;2022-10-19T16:24:37;9.07;;;4.47;;
13435;SDS011;6790;49.520;8.504;2022-10-19T16:27:03;6.00;;;4.03;;
13435;SDS011;6790;49.520;8.504;2022-10-19T16:29:29;6.20;;;4.13;;
13435;SDS011;6790;49.520;8.504;2022-10-19T16:31:55;6.87;;;4.00;;
13435;SDS011;6790;49.520;8.504;2022-10-19T16:34:21;5.17;;;4.00;;
13435;SDS011;6790;49.520;8.504;2022-10-19T16:36:46;5.97;;;3.83;;
13435;SDS011;6790;49.520;8.504;2022-10-19T16:39:12;5.13;;;3.83;;
13435;SDS011;6790;49.520;8.504;2022-10-19T16:41:38;4.73;;;4.07;;
13435;SDS011;6790;49.520;8.504;2022-10-19T16:44:04;6.23;;;4.20;;
13435;SDS011;6790;49.520;8.504;2022-10-19T16:46:29;6.43;;;4.17;;
13435;SDS011;6790;49.520;8.504;2022-10-19T16:48:55;6.77;;;4.07;;
13435;SDS011;6790;49.520;8.504;2022-10-19T16:53:50;6.50;;;4.07;;
13435;SDS011;6790;49.520;8.504;2022-10-19T16:56:21;8.07;;;4.83;;
13435;SDS011;6790;49.520;8.504;2022-10-19T16:58:47;6.17;;;4.67;;
13435;SDS011;6790;49.520;8.504;2022-10-19T17:01:16;5.87;;;4.20;;
13435;SDS011;6790;49.520;8.504;2022-10-19T17:03:43;8.93;;;5.07;;
13435;SDS011;6790;49.520;8.504;2022-10-19T17:06:10;5.27;;;4.47;;
13435;SDS011;6790;49.520;8.504;2022-10-19T17:08:38;5.03;;;3.93;;
13435;SDS011;6790;49.520;8.504;2022-10-19T17:11:14;6.23;;;4.53;;
13435;SDS011;6790;49.520;8.504;2022-10-19T17:13:44;4.57;;;4.03;;
13435;SDS011;6790;49.520;8.504;2022-10-19T17:16:13;5.80;;;4.40;;
13435;SDS011;6790;49.520;8.504;2022-10-19T17:18:40;6.80;;;4.03;;
13435;SDS011;6790;49.520;8.504;2022-10-19T17:21:10;5.63;;;4.00;;
13435;SDS011;6790;49.520;8.504;2022-10-19T17:23:43;8.47;;;4.97;;
13435;SDS011;6790;49.520;8.504;2022-10-19T17:26:09;8.70;;;5.63;;
13435;SDS011;6790;49.520;8.504;2022-10-19T17:28:36;13.17;;;8.43;;
13435;SDS011;6790;49.520;8.504;2022-10-19T17:31:04;12.37;;;8.20;;
13435;SDS011;6790;49.520;8.504;2022-10-19T17:33:40;11.63;;;5.40;;
13435;SDS011;6790;49.520;8.504;2022-10-19T17:36:07;6.23;;;5.10;;
13435;SDS011;6790;49.520;8.504;2022-10-19T17:38:39;8.10;;;5.03;;
13435;SDS011;6790;49.520;8.504;2022-10-19T17:41:06;6.87;;;4.53;;
13435;SDS011;6790;49.520;8.504;2022-10-19T17:43:39;5.37;;;4.30;;
13435;SDS011;6790;49.520;8.504;2022-10-19T17:46:07;5.50;;;4.73;;
13435;SDS011;6790;49.520;8.504;2022-10-19T17:48:35;6.23;;;4.70;;
13435;SDS011;6790;49.520;8.504;2022-10-19T17:51:03;7.80;;;5.10;;
13435;SDS011;6790;49.520;8.504;2022-10-19T17:53:35;7.77;;;5.77;;